createdAt,value
2018-07-22T00:00:09.067Z,42.50
2018-07-22T00:01:14.826Z,42.50
2018-07-22T00:02:19.912Z,42.50
2018-07-22T00:03:24.858Z,42.60
2018-07-22T00:04:29.923Z,42.50
2018-07-22T00:05:35.067Z,42.50
2018-07-22T00:06:40.134Z,42.50
2018-07-22T00:07:45.220Z,42.40
2018-07-22T00:08:50.479Z,42.40
2018-07-22T00:09:56.195Z,42.40
2018-07-22T00:11:01.418Z,42.40
2018-07-22T00:12:06.939Z,42.40
2018-07-22T00:13:11.921Z,42.40
2018-07-22T00:14:16.898Z,42.50
2018-07-22T00:15:21.841Z,42.30
2018-07-22T00:16:27.375Z,42.30
2018-07-22T00:17:32.208Z,42.40
2018-07-22T00:18:37.038Z,42.40
2018-07-22T00:19:42.802Z,42.30
2018-07-22T00:20:47.810Z,42.50
2018-07-22T00:21:52.990Z,42.20
2018-07-22T00:22:58.020Z,42.30
2018-07-22T00:24:03.278Z,42.40
2018-07-22T00:25:08.316Z,42.20
2018-07-22T00:26:13.484Z,42.30
2018-07-22T00:27:18.534Z,42.30
2018-07-22T00:28:23.446Z,42.30
2018-07-22T00:29:28.500Z,42.30
2018-07-22T00:30:33.557Z,42.40
2018-07-22T00:31:38.580Z,42.40
2018-07-22T00:32:43.755Z,42.40
2018-07-22T00:33:49.017Z,42.40
2018-07-22T00:34:54.749Z,42.40
2018-07-22T00:35:59.821Z,42.40
2018-07-22T00:37:05.554Z,42.40
2018-07-22T00:38:10.697Z,42.40
2018-07-22T00:39:15.740Z,42.40
2018-07-22T00:40:20.903Z,42.40
2018-07-22T00:41:25.995Z,42.40
2018-07-22T00:42:30.886Z,42.40
2018-07-22T00:43:35.953Z,42.40
2018-07-22T00:44:41.707Z,42.40
2018-07-22T00:45:46.672Z,42.40
2018-07-22T00:46:52.476Z,42.50
2018-07-22T00:47:58.119Z,42.50
2018-07-22T00:49:03.156Z,42.50
2018-07-22T00:50:08.369Z,42.50
2018-07-22T00:51:13.390Z,42.50
2018-07-22T00:52:18.194Z,42.50
2018-07-22T00:53:23.788Z,42.50
2018-07-22T00:54:28.832Z,42.50
2018-07-22T00:55:33.891Z,42.60
2018-07-22T00:56:39.101Z,42.60
2018-07-22T00:57:44.089Z,42.60
2018-07-22T00:58:49.333Z,42.60
2018-07-22T00:59:54.244Z,42.60
2018-07-22T01:00:59.474Z,42.70
2018-07-22T01:02:04.533Z,42.60
2018-07-22T01:03:09.788Z,42.70
2018-07-22T01:04:14.853Z,42.70
2018-07-22T01:05:20.135Z,42.70
2018-07-22T01:06:25.479Z,42.80
2018-07-22T01:07:30.598Z,42.90
2018-07-22T01:08:35.944Z,42.90
2018-07-22T01:09:41.199Z,42.80
2018-07-22T01:10:46.476Z,42.90
2018-07-22T01:11:51.428Z,42.80
2018-07-22T01:12:56.727Z,42.80
2018-07-22T01:14:02.292Z,42.90
2018-07-22T01:15:08.104Z,42.80
2018-07-22T01:16:13.707Z,42.90
2018-07-22T01:17:19.271Z,42.90
2018-07-22T01:18:24.942Z,42.90
2018-07-22T01:19:30.193Z,42.90
2018-07-22T01:20:35.332Z,42.90
2018-07-22T01:21:40.468Z,43.00
2018-07-22T01:22:45.674Z,43.00
2018-07-22T01:23:50.810Z,43.00
2018-07-22T01:24:56.009Z,43.10
2018-07-22T01:26:01.195Z,43.00
2018-07-22T01:27:07.050Z,43.10
2018-07-22T01:28:12.996Z,43.10
2018-07-22T01:29:18.269Z,43.10
2018-07-22T01:30:24.067Z,43.20
2018-07-22T01:31:29.328Z,43.10
2018-07-22T01:32:34.426Z,43.10
2018-07-22T01:33:39.969Z,43.10
2018-07-22T01:34:44.868Z,43.20
2018-07-22T01:35:49.923Z,43.00
2018-07-22T01:36:54.929Z,43.10
2018-07-22T01:38:00.516Z,43.10
2018-07-22T01:39:06.106Z,43.30
2018-07-22T01:40:11.749Z,43.30
2018-07-22T01:41:17.020Z,43.30
2018-07-22T01:42:22.076Z,43.30
2018-07-22T01:43:27.414Z,43.30
2018-07-22T01:44:32.505Z,43.30
2018-07-22T01:45:37.778Z,43.30
2018-07-22T01:46:42.895Z,43.40
2018-07-22T01:47:48.147Z,43.30
2018-07-22T01:48:53.262Z,43.30
2018-07-22T01:49:58.873Z,43.30
2018-07-22T01:51:04.125Z,43.40
2018-07-22T01:52:09.290Z,43.30
2018-07-22T01:53:14.368Z,43.40
2018-07-22T01:54:20.302Z,43.40
2018-07-22T01:55:25.214Z,43.40
2018-07-22T01:56:30.846Z,43.50
2018-07-22T01:57:35.972Z,43.60
2018-07-22T01:58:41.143Z,43.50
2018-07-22T01:59:46.967Z,43.40
2018-07-22T02:00:52.846Z,43.50
2018-07-22T02:01:58.043Z,43.40
2018-07-22T02:03:03.692Z,43.40
2018-07-22T02:04:08.634Z,43.40
2018-07-22T02:05:13.690Z,43.60
2018-07-22T02:06:18.833Z,43.50
2018-07-22T02:07:24.140Z,43.70
2018-07-22T02:08:29.949Z,43.70
2018-07-22T02:09:35.068Z,43.60
2018-07-22T02:10:40.095Z,43.50
2018-07-22T02:11:45.087Z,44.20
2018-07-22T02:12:50.227Z,43.50
2018-07-22T02:13:55.570Z,43.50
2018-07-22T02:15:00.605Z,43.50
2018-07-22T02:16:06.492Z,43.60
2018-07-22T02:17:11.378Z,43.70
2018-07-22T02:18:16.448Z,43.70
2018-07-22T02:19:21.665Z,43.70
2018-07-22T02:20:27.273Z,43.80
2018-07-22T02:23:26.051Z,43.70
2018-07-22T02:24:31.325Z,43.70
2018-07-22T02:25:37.245Z,43.80
2018-07-22T02:26:42.337Z,43.70
2018-07-22T02:27:47.385Z,43.80
2018-07-22T02:28:52.312Z,43.70
2018-07-22T02:29:57.316Z,43.90
2018-07-22T02:31:03.328Z,44.00
2018-07-22T02:32:08.990Z,44.00
2018-07-22T02:33:13.916Z,44.10
2018-07-22T02:34:19.917Z,44.20
2018-07-22T02:35:25.123Z,44.10
2018-07-22T02:36:30.363Z,44.20
2018-07-22T02:37:35.611Z,44.30
2018-07-22T02:38:40.574Z,44.20
2018-07-22T02:39:46.584Z,44.10
2018-07-22T02:40:52.585Z,44.20
2018-07-22T02:41:57.717Z,44.20
2018-07-22T02:43:03.048Z,44.30
2018-07-22T02:44:08.314Z,44.30
2018-07-22T02:45:13.386Z,44.20
2018-07-22T02:46:19.352Z,44.20
2018-07-22T02:47:25.379Z,44.20
2018-07-22T02:48:30.490Z,44.20
2018-07-22T02:49:35.550Z,44.20
2018-07-22T02:50:41.556Z,44.30
2018-07-22T02:51:46.732Z,44.30
2018-07-22T02:52:51.787Z,44.40
2018-07-22T02:53:57.870Z,44.60
2018-07-22T02:55:02.936Z,44.60
2018-07-22T02:56:08.167Z,44.50
2018-07-22T02:57:13.259Z,44.50
2018-07-22T02:58:18.369Z,44.50
2018-07-22T02:59:24.392Z,44.60
2018-07-22T03:00:29.548Z,44.60
2018-07-22T03:01:35.598Z,44.60
2018-07-22T03:02:40.664Z,44.70
2018-07-22T03:03:45.760Z,44.70
2018-07-22T03:04:50.921Z,44.60
2018-07-22T03:05:55.882Z,44.60
2018-07-22T03:07:01.864Z,44.50
2018-07-22T03:08:07.032Z,44.70
2018-07-22T03:09:13.020Z,44.50
2018-07-22T03:10:18.953Z,44.60
2018-07-22T03:11:23.926Z,44.70
2018-07-22T03:12:29.615Z,44.60
2018-07-22T03:13:35.405Z,44.60
2018-07-22T03:14:40.522Z,44.60
2018-07-22T03:15:45.646Z,44.70
2018-07-22T03:16:50.613Z,44.70
2018-07-22T03:17:55.905Z,44.80
2018-07-22T03:19:01.030Z,44.80
2018-07-22T03:20:06.106Z,44.90
2018-07-22T03:21:11.427Z,44.90
2018-07-22T03:22:17.360Z,45.00
2018-07-22T03:23:22.512Z,45.00
2018-07-22T03:24:28.449Z,45.00
2018-07-22T03:25:33.396Z,45.00
2018-07-22T03:26:39.350Z,45.00
2018-07-22T03:27:44.593Z,45.00
2018-07-22T03:28:49.606Z,45.00
2018-07-22T03:29:54.542Z,44.90
2018-07-22T03:31:00.454Z,44.90
2018-07-22T03:32:06.202Z,44.80
2018-07-22T03:33:11.201Z,44.70
2018-07-22T03:34:17.002Z,44.80
2018-07-22T03:35:23.128Z,44.80
2018-07-22T03:36:28.874Z,44.80
2018-07-22T03:37:34.112Z,44.70
2018-07-22T03:38:39.248Z,44.90
2018-07-22T03:39:44.573Z,44.90
2018-07-22T03:40:50.538Z,44.90
2018-07-22T03:41:55.502Z,44.90
2018-07-22T03:43:01.498Z,44.90
2018-07-22T03:44:06.699Z,45.00
2018-07-22T03:45:11.920Z,45.10
2018-07-22T03:46:17.927Z,45.30
2018-07-22T03:47:23.296Z,45.10
2018-07-22T03:48:28.168Z,45.20
2018-07-22T03:49:33.250Z,45.30
2018-07-22T03:50:38.351Z,45.30
2018-07-22T03:51:43.551Z,45.30
2018-07-22T03:52:48.828Z,45.40
2018-07-22T03:53:53.761Z,45.60
2018-07-22T03:54:58.906Z,45.50
2018-07-22T03:56:04.187Z,45.50
2018-07-22T03:57:09.141Z,45.70
2018-07-22T03:58:14.296Z,45.90
2018-07-22T03:59:20.124Z,46.00
2018-07-22T04:00:25.392Z,46.00
2018-07-22T04:01:30.424Z,46.00
2018-07-22T04:02:36.422Z,45.90
2018-07-22T04:03:42.239Z,45.80
2018-07-22T04:04:47.473Z,45.70
2018-07-22T04:05:52.920Z,45.60
2018-07-22T04:06:58.188Z,45.60
2018-07-22T04:08:03.937Z,45.90
2018-07-22T04:09:09.266Z,45.90
2018-07-22T04:10:14.394Z,45.80
2018-07-22T04:11:19.358Z,45.80
2018-07-22T04:12:25.317Z,45.80
2018-07-22T04:13:30.245Z,45.80
2018-07-22T04:14:35.485Z,45.90
2018-07-22T04:15:41.505Z,45.90
2018-07-22T04:16:46.436Z,46.00
2018-07-22T04:17:51.576Z,46.10
2018-07-22T04:18:56.672Z,46.10
2018-07-22T04:20:02.493Z,46.10
2018-07-22T04:21:07.537Z,46.30
2018-07-22T04:22:13.323Z,46.20
2018-07-22T04:23:19.338Z,46.30
2018-07-22T04:24:24.341Z,46.30
2018-07-22T04:25:29.549Z,46.30
2018-07-22T04:26:35.262Z,47.00
2018-07-22T04:27:40.120Z,46.30
2018-07-22T04:28:45.027Z,46.30
2018-07-22T04:29:50.049Z,46.30
2018-07-22T04:30:54.873Z,46.40
2018-07-22T04:31:59.869Z,46.50
2018-07-22T04:33:05.810Z,47.30
2018-07-22T04:34:11.007Z,47.20
2018-07-22T04:35:15.835Z,46.60
2018-07-22T04:36:21.043Z,46.70
2018-07-22T04:37:26.771Z,46.80
2018-07-22T04:38:32.485Z,46.80
2018-07-22T04:39:37.637Z,46.80
2018-07-22T04:40:42.880Z,46.60
2018-07-22T04:41:47.920Z,46.60
2018-07-22T04:42:53.252Z,46.70
2018-07-22T04:43:58.321Z,46.80
2018-07-22T04:45:03.669Z,46.80
2018-07-22T04:46:09.408Z,46.90
2018-07-22T04:47:14.506Z,47.10
2018-07-22T04:48:19.604Z,47.40
2018-07-22T04:49:25.323Z,47.60
2018-07-22T04:50:30.398Z,47.50
2018-07-22T04:51:35.716Z,47.50
2018-07-22T04:52:41.707Z,47.50
2018-07-22T04:53:47.681Z,47.60
2018-07-22T04:54:52.702Z,47.60
2018-07-22T04:55:57.627Z,47.40
2018-07-22T04:57:03.326Z,47.30
2018-07-22T04:58:08.187Z,47.30
2018-07-22T04:59:12.978Z,47.30
2018-07-22T05:00:18.038Z,47.20
2018-07-22T05:01:22.981Z,47.10
2018-07-22T05:02:27.799Z,47.10
2018-07-22T05:03:32.803Z,47.30
2018-07-22T05:04:38.496Z,47.50
2018-07-22T05:05:43.789Z,47.80
2018-07-22T05:06:49.820Z,47.80
2018-07-22T05:07:55.072Z,47.60
2018-07-22T05:09:00.131Z,47.40
2018-07-22T05:10:05.313Z,47.60
2018-07-22T05:11:10.392Z,47.60
2018-07-22T05:12:15.225Z,47.50
2018-07-22T05:13:20.128Z,47.60
2018-07-22T05:14:25.245Z,47.40
2018-07-22T05:15:31.167Z,48.20
2018-07-22T05:16:36.048Z,47.80
2018-07-22T05:17:40.972Z,48.50
2018-07-22T05:18:45.883Z,48.20
2018-07-22T05:19:50.942Z,48.30
2018-07-22T05:20:56.721Z,48.30
2018-07-22T05:22:02.736Z,48.10
2018-07-22T05:23:07.996Z,48.10
2018-07-22T05:24:13.105Z,48.30
2018-07-22T05:25:18.144Z,48.00
2018-07-22T05:26:23.121Z,48.00
2018-07-22T05:27:28.896Z,48.10
2018-07-22T05:28:34.236Z,48.10
2018-07-22T05:29:39.040Z,48.30
2018-07-22T05:30:44.159Z,48.40
2018-07-22T05:31:50.142Z,48.20
2018-07-22T05:32:55.353Z,48.30
2018-07-22T05:34:00.385Z,48.20
2018-07-22T05:35:05.485Z,48.30
2018-07-22T05:36:10.508Z,48.30
2018-07-22T05:37:16.469Z,48.20
2018-07-22T05:38:22.254Z,48.20
2018-07-22T05:39:27.383Z,48.00
2018-07-22T05:40:33.378Z,48.20
2018-07-22T05:41:38.592Z,48.20
2018-07-22T05:42:43.425Z,48.10
2018-07-22T05:43:48.364Z,48.10
2018-07-22T05:44:53.254Z,48.00
2018-07-22T05:45:58.097Z,48.10
2018-07-22T05:47:03.200Z,48.10
2018-07-22T05:48:08.124Z,48.00
2018-07-22T05:49:13.311Z,48.00
2018-07-22T05:50:18.186Z,48.10
2018-07-22T05:51:23.091Z,48.20
2018-07-22T05:52:28.094Z,48.20
2018-07-22T05:53:33.172Z,48.10
2018-07-22T05:54:38.923Z,48.10
2018-07-22T05:55:44.034Z,48.40
2018-07-22T05:56:49.755Z,48.60
2018-07-22T05:57:55.015Z,48.60
2018-07-22T05:59:00.766Z,48.50
2018-07-22T06:00:06.488Z,48.50
2018-07-22T06:01:11.760Z,48.40
2018-07-22T06:02:16.710Z,48.50
2018-07-22T06:03:22.705Z,48.40
2018-07-22T06:04:28.409Z,48.30
2018-07-22T06:05:33.238Z,48.10
2018-07-22T06:06:39.144Z,48.20
2018-07-22T06:07:43.936Z,48.20
2018-07-22T06:08:48.801Z,48.20
2018-07-22T06:09:53.646Z,48.20
2018-07-22T06:10:58.742Z,48.10
2018-07-22T06:12:03.903Z,48.10
2018-07-22T06:13:08.705Z,48.20
2018-07-22T06:14:13.776Z,48.30
2018-07-22T06:15:19.526Z,48.50
2018-07-22T06:16:24.682Z,48.30
2018-07-22T06:17:29.719Z,48.30
2018-07-22T06:18:34.627Z,48.30
2018-07-22T06:19:39.703Z,48.40
2018-07-22T06:20:45.520Z,48.40
2018-07-22T06:21:51.549Z,48.30
2018-07-22T06:22:56.975Z,48.30
2018-07-22T06:24:02.322Z,48.20
2018-07-22T06:25:07.682Z,48.10
2018-07-22T06:26:12.810Z,48.10
2018-07-22T06:27:17.710Z,48.20
2018-07-22T06:28:22.859Z,48.10
2018-07-22T06:29:27.867Z,48.10
2018-07-22T06:30:33.090Z,48.20
2018-07-22T06:31:38.494Z,48.30
2018-07-22T06:32:43.649Z,48.30
2018-07-22T06:33:48.763Z,48.30
2018-07-22T06:34:53.914Z,48.40
2018-07-22T06:35:59.028Z,48.40
2018-07-22T06:37:04.877Z,48.50
2018-07-22T06:38:09.966Z,48.60
2018-07-22T06:39:14.936Z,48.60
2018-07-22T06:40:20.120Z,48.60
2018-07-22T06:41:25.468Z,48.60
2018-07-22T06:42:31.232Z,48.60
2018-07-22T06:43:36.329Z,48.60
2018-07-22T06:44:41.415Z,48.90
2018-07-22T06:45:46.614Z,48.90
2018-07-22T06:46:51.652Z,48.90
2018-07-22T06:47:56.495Z,48.80
2018-07-22T06:49:02.464Z,48.80
2018-07-22T06:50:07.615Z,48.70
2018-07-22T06:51:12.660Z,48.70
2018-07-22T06:52:17.987Z,48.60
2018-07-22T06:53:23.300Z,48.60
2018-07-22T06:54:28.459Z,48.50
2018-07-22T06:55:33.381Z,48.60
2018-07-22T06:56:38.395Z,48.70
2018-07-22T06:57:43.321Z,48.70
2018-07-22T06:58:49.233Z,48.70
2018-07-22T06:59:54.270Z,48.70
2018-07-22T07:00:59.948Z,48.50
2018-07-22T07:02:05.158Z,48.50
2018-07-22T07:03:10.175Z,48.50
2018-07-22T07:04:15.319Z,48.30
2018-07-22T07:05:21.730Z,48.30
2018-07-22T07:06:26.395Z,48.30
2018-07-22T07:07:31.184Z,48.40
2018-07-22T07:08:36.174Z,48.40
2018-07-22T07:09:42.166Z,48.30
2018-07-22T07:10:47.211Z,48.20
2018-07-22T07:11:52.112Z,48.40
2018-07-22T07:12:57.333Z,48.30
2018-07-22T07:14:03.300Z,48.40
2018-07-22T07:15:08.854Z,48.30
2018-07-22T07:16:13.625Z,48.30
2018-07-22T07:17:18.671Z,48.30
2018-07-22T07:18:23.565Z,48.20
2018-07-22T07:19:29.182Z,48.30
2018-07-22T07:20:34.033Z,48.40
2018-07-22T07:21:39.266Z,48.30
2018-07-22T07:22:44.419Z,48.80
2018-07-22T07:23:49.608Z,48.50
2018-07-22T07:24:54.444Z,48.40
2018-07-22T07:26:00.319Z,48.50
2018-07-22T07:27:05.455Z,48.40
2018-07-22T07:28:10.492Z,48.40
2018-07-22T07:29:15.749Z,48.30
2018-07-22T07:30:21.060Z,48.30
2018-07-22T07:31:25.984Z,48.30
2018-07-22T07:32:31.064Z,48.30
2018-07-22T07:33:36.138Z,48.20
2018-07-22T07:34:41.215Z,48.20
2018-07-22T07:35:46.186Z,48.30
2018-07-22T07:36:51.322Z,48.30
2018-07-22T07:37:56.395Z,48.30
2018-07-22T07:39:01.207Z,48.30
2018-07-22T07:40:06.117Z,48.50
2018-07-22T07:41:11.226Z,48.70
2018-07-22T07:42:17.287Z,49.00
2018-07-22T07:43:23.284Z,49.00
2018-07-22T07:44:28.351Z,49.10
2018-07-22T07:45:34.116Z,49.10
2018-07-22T07:46:39.257Z,49.00
2018-07-22T07:47:44.467Z,49.10
2018-07-22T07:48:49.644Z,49.20
2018-07-22T07:49:55.003Z,49.20
2018-07-22T07:51:01.006Z,49.00
2018-07-22T07:52:05.988Z,48.80
2018-07-22T07:53:11.058Z,48.60
2018-07-22T07:54:16.111Z,48.60
2018-07-22T07:55:21.106Z,48.50
2018-07-22T07:56:26.832Z,48.40
2018-07-22T07:57:31.634Z,48.50
2018-07-22T07:58:36.899Z,48.50
2018-07-22T07:59:42.797Z,48.80
2018-07-22T08:00:47.660Z,48.80
2018-07-22T08:01:52.777Z,49.00
2018-07-22T08:02:58.496Z,49.20
2018-07-22T08:04:03.571Z,49.30
2018-07-22T08:05:08.662Z,49.40
2018-07-22T08:06:13.920Z,49.40
2018-07-22T08:07:18.968Z,49.50
2018-07-22T08:08:24.158Z,49.50
2018-07-22T08:09:29.297Z,49.10
2018-07-22T08:10:34.526Z,49.20
2018-07-22T08:11:40.394Z,49.20
2018-07-22T08:12:46.195Z,49.00
2018-07-22T08:13:52.067Z,49.00
2018-07-22T08:14:57.111Z,49.00
2018-07-22T08:16:02.912Z,49.20
2018-07-22T08:17:08.571Z,49.00
2018-07-22T08:18:13.442Z,49.00
2018-07-22T08:19:18.488Z,48.90
2018-07-22T08:20:23.568Z,48.90
2018-07-22T08:21:28.581Z,49.00
2018-07-22T08:22:34.261Z,48.90
2018-07-22T08:23:40.216Z,48.80
2018-07-22T08:24:45.308Z,48.80
2018-07-22T08:25:50.170Z,48.70
2018-07-22T08:26:56.028Z,48.60
2018-07-22T08:28:01.403Z,48.60
2018-07-22T08:29:06.373Z,48.40
2018-07-22T08:30:11.556Z,48.40
2018-07-22T08:31:17.416Z,48.40
2018-07-22T08:32:22.339Z,48.30
2018-07-22T08:33:28.049Z,48.30
2018-07-22T08:34:33.900Z,48.30
2018-07-22T08:35:38.991Z,48.20
2018-07-22T08:36:44.024Z,48.20
2018-07-22T08:37:48.949Z,48.30
2018-07-22T08:38:53.932Z,48.30
2018-07-22T08:39:58.851Z,48.20
2018-07-22T08:41:04.240Z,48.20
2018-07-22T08:42:09.204Z,48.30
2018-07-22T08:43:14.465Z,48.20
2018-07-22T08:44:19.562Z,48.30
2018-07-22T08:45:24.966Z,48.30
2018-07-22T08:46:30.163Z,48.10
2018-07-22T08:47:35.269Z,48.10
2018-07-22T08:48:40.389Z,48.00
2018-07-22T08:49:45.435Z,48.30
2018-07-22T08:50:51.555Z,48.30
2018-07-22T08:51:56.432Z,48.40
2018-07-22T08:53:02.468Z,48.40
2018-07-22T08:54:10.294Z,48.60
2018-07-22T08:55:16.597Z,48.50
2018-07-22T08:56:22.647Z,48.60
2018-07-22T08:57:29.527Z,48.40
2018-07-22T08:58:36.687Z,48.40
2018-07-22T08:59:42.603Z,48.30
2018-07-22T09:00:48.741Z,48.30
2018-07-22T09:01:55.734Z,48.30
2018-07-22T09:03:02.293Z,48.10
2018-07-22T09:04:09.356Z,48.00
2018-07-22T09:05:14.643Z,48.00
2018-07-22T09:06:19.655Z,48.10
2018-07-22T09:07:24.735Z,48.20
2018-07-22T09:08:29.646Z,48.20
2018-07-22T09:09:34.774Z,48.10
2018-07-22T09:10:39.935Z,48.10
2018-07-22T09:11:45.489Z,48.00
2018-07-22T09:12:50.321Z,48.10
2018-07-22T09:13:56.251Z,48.10
2018-07-22T09:15:01.425Z,48.10
2018-07-22T09:16:06.523Z,48.20
2018-07-22T09:17:12.512Z,48.20
2018-07-22T09:18:17.642Z,48.30
2018-07-22T09:19:23.077Z,48.20
2018-07-22T09:20:28.241Z,48.20
2018-07-22T09:21:33.275Z,47.90
2018-07-22T09:22:39.137Z,48.70
2018-07-22T09:23:45.112Z,48.30
2018-07-22T09:24:50.378Z,48.40
2018-07-22T09:25:56.306Z,48.10
2018-07-22T09:27:01.359Z,48.40
2018-07-22T09:28:06.519Z,48.30
2018-07-22T09:29:11.748Z,48.20
2018-07-22T09:30:16.809Z,48.40
2018-07-22T09:31:22.050Z,48.20
2018-07-22T09:32:27.289Z,48.10
2018-07-22T09:33:32.133Z,48.10
2018-07-22T09:34:37.352Z,48.10
2018-07-22T09:35:43.243Z,48.10
2018-07-22T09:36:48.445Z,48.10
2018-07-22T09:37:53.465Z,48.10
2018-07-22T09:38:58.752Z,48.00
2018-07-22T09:40:03.965Z,48.10
2018-07-22T09:41:08.765Z,48.00
2018-07-22T09:42:13.845Z,47.80
2018-07-22T09:43:18.861Z,47.60
2018-07-22T09:44:24.090Z,47.60
2018-07-22T09:45:29.911Z,47.60
2018-07-22T09:46:34.878Z,47.60
2018-07-22T09:47:39.846Z,47.70
2018-07-22T09:48:44.807Z,47.60
2018-07-22T09:49:50.038Z,47.50
2018-07-22T09:50:54.955Z,47.40
2018-07-22T09:51:59.950Z,47.70
2018-07-22T09:53:05.180Z,47.70
2018-07-22T09:54:10.923Z,47.40
2018-07-22T09:55:15.946Z,47.30
2018-07-22T09:56:21.699Z,47.30
2018-07-22T09:57:26.808Z,47.10
2018-07-22T09:58:31.748Z,47.30
2018-07-22T09:59:36.761Z,47.20
2018-07-22T10:00:42.088Z,47.30
2018-07-22T10:01:47.136Z,47.30
2018-07-22T10:02:51.902Z,47.40
2018-07-22T10:03:57.079Z,47.50
2018-07-22T10:05:01.910Z,47.60
2018-07-22T10:06:07.835Z,47.70
2018-07-22T10:07:13.593Z,47.90
2018-07-22T10:08:18.640Z,48.80
2018-07-22T10:09:23.881Z,48.30
2018-07-22T10:10:28.964Z,47.90
2018-07-22T10:11:34.178Z,47.90
2018-07-22T10:12:39.597Z,47.70
2018-07-22T10:13:46.007Z,47.50
2018-07-22T10:14:51.822Z,47.70
2018-07-22T10:15:57.231Z,47.40
2018-07-22T10:17:03.243Z,47.30
2018-07-22T10:18:08.595Z,47.30
2018-07-22T10:19:14.698Z,47.10
2018-07-22T10:20:21.222Z,47.30
2018-07-22T10:21:27.075Z,47.30
2018-07-22T10:22:32.910Z,47.60
2018-07-22T10:23:37.927Z,47.80
2018-07-22T10:24:44.023Z,47.80
2018-07-22T10:25:49.013Z,47.80
2018-07-22T10:26:54.117Z,47.90
2018-07-22T10:27:59.238Z,47.90
2018-07-22T10:29:04.269Z,47.90
2018-07-22T10:30:10.148Z,48.10
2018-07-22T10:31:15.437Z,48.20
2018-07-22T10:32:20.569Z,48.10
2018-07-22T10:33:25.508Z,48.20
2018-07-22T10:34:30.543Z,48.10
2018-07-22T10:35:35.462Z,48.00
2018-07-22T10:36:41.217Z,47.90
2018-07-22T10:37:46.467Z,48.10
2018-07-22T10:38:51.693Z,48.60
2018-07-22T10:39:57.516Z,49.20
2018-07-22T10:41:02.386Z,49.50
2018-07-22T10:42:07.231Z,50.10
2018-07-22T10:43:12.603Z,50.30
2018-07-22T10:44:17.519Z,50.50
2018-07-22T10:45:22.437Z,50.30
2018-07-22T10:46:27.433Z,50.10
2018-07-22T10:47:32.287Z,50.20
2018-07-22T10:48:37.313Z,50.30
2018-07-22T10:49:42.370Z,50.20
2018-07-22T10:50:48.185Z,49.70
2018-07-22T10:51:52.939Z,49.60
2018-07-22T10:52:57.872Z,49.40
2018-07-22T10:54:03.114Z,49.00
2018-07-22T10:55:08.895Z,48.70
2018-07-22T10:56:13.771Z,48.60
2018-07-22T10:57:19.462Z,48.60
2018-07-22T10:58:24.710Z,48.70
2018-07-22T10:59:29.789Z,48.60
2018-07-22T11:00:35.706Z,48.20
2018-07-22T11:01:41.397Z,48.10
2018-07-22T11:02:47.332Z,48.10
2018-07-22T11:03:52.314Z,47.60
2018-07-22T11:04:57.417Z,47.50
2018-07-22T11:06:02.994Z,47.50
2018-07-22T11:07:07.961Z,47.10
2018-07-22T11:08:13.907Z,47.00
2018-07-22T11:09:18.855Z,46.90
2018-07-22T11:10:24.547Z,46.90
2018-07-22T11:11:29.575Z,46.40
2018-07-22T11:12:34.454Z,46.30
2018-07-22T11:13:39.321Z,46.40
2018-07-22T11:14:44.491Z,46.50
2018-07-22T11:15:50.300Z,46.60
2018-07-22T11:16:55.639Z,46.70
2018-07-22T11:18:01.457Z,46.70
2018-07-22T11:19:07.366Z,46.80
2018-07-22T11:20:12.581Z,46.90
2018-07-22T11:21:17.959Z,47.10
2018-07-22T11:22:23.746Z,47.30
2018-07-22T11:23:29.253Z,47.30
2018-07-22T11:24:34.325Z,47.40
2018-07-22T11:25:40.329Z,47.50
2018-07-22T11:26:45.193Z,47.60
2018-07-22T11:27:50.263Z,47.60
2018-07-22T11:28:56.027Z,47.60
2018-07-22T11:30:00.921Z,47.70
2018-07-22T11:31:05.989Z,47.70
2018-07-22T11:32:11.869Z,47.80
2018-07-22T11:33:16.932Z,47.80
2018-07-22T11:34:21.751Z,47.80
2018-07-22T11:35:26.783Z,47.80
2018-07-22T11:36:31.865Z,47.90
2018-07-22T11:37:37.595Z,47.90
2018-07-22T11:38:42.580Z,47.90
2018-07-22T11:39:48.259Z,47.90
2018-07-22T11:40:53.049Z,47.90
2018-07-22T11:41:58.145Z,47.90
2018-07-22T11:43:03.167Z,48.00
2018-07-22T11:44:09.107Z,48.00
2018-07-22T11:45:14.061Z,48.00
2018-07-22T11:46:18.870Z,48.00
2018-07-22T11:47:23.979Z,48.00
2018-07-22T11:48:28.802Z,48.00
2018-07-22T11:49:33.625Z,48.00
2018-07-22T11:50:38.726Z,48.00
2018-07-22T11:51:43.949Z,48.00
2018-07-22T11:52:49.823Z,48.00
2018-07-22T11:53:55.014Z,48.00
2018-07-22T11:55:00.771Z,48.10
2018-07-22T11:56:06.569Z,48.10
2018-07-22T11:57:11.723Z,48.10
2018-07-22T11:58:16.714Z,48.10
2018-07-22T11:59:22.542Z,48.20
2018-07-22T12:00:27.724Z,48.10
2018-07-22T12:01:32.835Z,48.10
2018-07-22T12:02:37.708Z,48.10
2018-07-22T12:03:42.798Z,48.20
2018-07-22T12:04:49.195Z,48.10
2018-07-22T12:05:54.718Z,48.20
2018-07-22T12:07:00.034Z,48.10
2018-07-22T12:08:06.265Z,48.20
2018-07-22T12:09:11.349Z,48.20
2018-07-22T12:10:16.464Z,48.20
2018-07-22T12:11:21.568Z,48.20
2018-07-22T12:12:26.515Z,48.20
2018-07-22T12:13:31.423Z,48.20
2018-07-22T12:14:36.342Z,48.20
2018-07-22T12:15:42.268Z,48.20
2018-07-22T12:16:47.417Z,48.30
2018-07-22T12:17:52.490Z,48.20
2018-07-22T12:18:57.342Z,48.20
2018-07-22T12:20:02.202Z,48.20
2018-07-22T12:21:07.161Z,48.20
2018-07-22T12:22:12.173Z,48.20
2018-07-22T12:23:18.086Z,48.20
2018-07-22T12:24:23.366Z,48.20
2018-07-22T12:25:29.472Z,48.20
2018-07-22T12:26:34.338Z,48.20
2018-07-22T12:27:40.072Z,48.20
2018-07-22T12:28:44.924Z,48.20
2018-07-22T12:29:49.864Z,48.30
2018-07-22T12:30:54.871Z,48.20
2018-07-22T12:31:59.703Z,48.30
2018-07-22T12:33:04.530Z,48.30
2018-07-22T12:34:10.323Z,48.30
2018-07-22T12:35:15.469Z,48.30
2018-07-22T12:36:21.414Z,48.30
2018-07-22T12:37:26.424Z,48.30
2018-07-22T12:38:32.515Z,48.30
2018-07-22T12:39:37.468Z,48.30
2018-07-22T12:40:42.404Z,48.30
2018-07-22T12:41:47.260Z,48.30
2018-07-22T12:42:52.260Z,48.30
2018-07-22T12:43:57.275Z,48.30
2018-07-22T12:45:02.533Z,48.20
2018-07-22T12:46:07.723Z,48.30
2018-07-22T12:47:13.463Z,48.30
2018-07-22T12:48:19.430Z,48.20
2018-07-22T12:49:25.442Z,48.20
2018-07-22T12:50:31.462Z,48.20
2018-07-22T12:51:37.574Z,48.20
2018-07-22T12:52:43.475Z,48.20
2018-07-22T12:53:48.541Z,48.20
2018-07-22T12:54:53.632Z,48.30
2018-07-22T12:55:58.861Z,48.20
2018-07-22T12:57:04.559Z,48.20
2018-07-22T12:58:09.349Z,48.20
2018-07-22T12:59:14.383Z,48.20
2018-07-22T13:00:19.555Z,48.20
2018-07-22T13:01:24.682Z,48.20
2018-07-22T13:02:29.764Z,48.10
2018-07-22T13:03:35.144Z,48.20
2018-07-22T13:04:40.020Z,48.20
2018-07-22T13:05:45.126Z,48.10
2018-07-22T13:06:50.423Z,48.20
2018-07-22T13:07:55.544Z,48.10
2018-07-22T13:09:00.558Z,48.10
2018-07-22T13:10:06.290Z,48.10
2018-07-22T13:11:11.388Z,48.10
2018-07-22T13:12:16.610Z,48.10
2018-07-22T13:13:22.610Z,48.10
2018-07-22T13:14:27.800Z,48.10
2018-07-22T13:15:32.723Z,48.20
2018-07-22T13:16:37.795Z,48.10
2018-07-22T13:17:43.620Z,48.10
2018-07-22T13:18:48.733Z,48.10
2018-07-22T13:19:53.530Z,48.10
2018-07-22T13:20:58.589Z,48.10
2018-07-22T13:22:03.618Z,48.10
2018-07-22T13:23:08.578Z,48.10
2018-07-22T13:24:13.613Z,48.10
2018-07-22T13:25:18.628Z,48.10
2018-07-22T13:26:24.471Z,48.10
2018-07-22T13:27:29.329Z,48.10
2018-07-22T13:28:34.287Z,48.00
2018-07-22T13:29:39.354Z,48.10
2018-07-22T13:30:44.298Z,48.10
2018-07-22T13:31:49.434Z,48.70
2018-07-22T13:32:54.279Z,48.10
2018-07-22T13:33:59.381Z,48.10
2018-07-22T13:35:04.687Z,48.10
2018-07-22T13:36:09.955Z,48.00
2018-07-22T13:37:14.879Z,48.00
2018-07-22T13:38:21.001Z,48.00
2018-07-22T13:39:26.154Z,48.00
2018-07-22T13:40:31.881Z,48.00
2018-07-22T13:41:36.968Z,48.00
2018-07-22T13:42:42.075Z,48.60
2018-07-22T13:43:47.100Z,47.90
2018-07-22T13:44:52.181Z,48.00
2018-07-22T13:45:57.398Z,47.90
2018-07-22T13:47:02.533Z,47.90
2018-07-22T13:48:07.455Z,47.90
2018-07-22T13:49:13.262Z,47.80
2018-07-22T13:50:18.326Z,47.90
2018-07-22T13:51:23.249Z,47.80
2018-07-22T13:52:29.201Z,47.80
2018-07-22T13:53:34.283Z,47.80
2018-07-22T13:54:39.366Z,47.80
2018-07-22T13:55:44.479Z,47.70
2018-07-22T13:56:49.894Z,47.80
2018-07-22T13:57:55.045Z,47.70
2018-07-22T13:59:00.757Z,47.70
2018-07-22T14:00:05.709Z,47.70
2018-07-22T14:01:10.713Z,47.70
2018-07-22T14:02:15.900Z,47.70